<?xml version='1.0' encoding='UTF-8'?><gpx version="1.1" creator="JPX - https://github.com/jenetics/jpx" xmlns="http://www.topografix.com/GPX/1/1"><trk><trkseg><trkpt lat="43.49869463555525" lon="10.41128530479765"><ele>229.0</ele><time>2026-04-17T14:04:48Z</time></trkpt><trkpt lat="43.49879742510581" lon="10.41127264995446"><ele>229.0</ele><time>2026-04-17T14:05:24Z</time></trkpt><trkpt lat="43.498983068256564" lon="10.411292830793737"><ele>229.0</ele><time>2026-04-17T14:05:27Z</time></trkpt><trkpt lat="43.49910745996491" lon="10.411330592841662"><ele>229.0</ele><time>2026-04-17T14:05:29Z</time></trkpt><trkpt lat="43.49917782867652" lon="10.411362190732898"><ele>229.0</ele><time>2026-04-17T14:05:29.999Z</time></trkpt><trkpt lat="43.49924600953413" lon="10.411459183805373"><ele>228.99999999999997</ele><time>2026-04-17T14:05:30.999Z</time></trkpt><trkpt lat="43.49930610012854" lon="10.411534366236623"><ele>228.99999999999997</ele><time>2026-04-17T14:05:31.999Z</time></trkpt><trkpt lat="43.49937063845337" lon="10.411614111583575"><ele>229.0</ele><time>2026-04-17T14:05:32.999Z</time></trkpt><trkpt lat="43.49944464447798" lon="10.411690039839"><ele>229.0</ele><time>2026-04-17T14:05:33.999Z</time></trkpt><trkpt lat="43.49950401723217" lon="10.411789008039456"><ele>229.0</ele><time>2026-04-17T14:05:34.999Z</time></trkpt><trkpt lat="43.499560672674875" lon="10.411877594152298"><ele>228.99999999999997</ele><time>2026-04-17T14:05:35.999Z</time></trkpt><trkpt lat="43.499664183240554" lon="10.411959262619867"><ele>228.99999999999997</ele><time>2026-04-17T14:05:37.999Z</time></trkpt><trkpt lat="43.499743369292624" lon="10.411990695630351"><ele>229.0</ele><time>2026-04-17T14:05:38.999Z</time></trkpt><trkpt lat="43.49985770883863" lon="10.41203090283884"><ele>229.0</ele><time>2026-04-17T14:05:39.999Z</time></trkpt><trkpt lat="43.49995993460102" lon="10.41208365214894"><ele>230.2</ele><time>2026-04-17T14:05:40.999Z</time></trkpt><trkpt lat="43.50003318772337" lon="10.412124018104171"><ele>231.39999999999998</ele><time>2026-04-17T14:05:41.999Z</time></trkpt><trkpt lat="43.50009437705511" lon="10.412157045932782"><ele>232.6</ele><time>2026-04-17T14:05:42.999Z</time></trkpt><trkpt lat="43.5001810316857" lon="10.412199952748654"><ele>233.8</ele><time>2026-04-17T14:05:45Z</time></trkpt><trkpt lat="43.50019142375164" lon="10.41239656606322"><ele>235.0</ele><time>2026-04-17T14:05:58Z</time></trkpt><trkpt lat="43.50010241724463" lon="10.412476465322806"><ele>237.2</ele><time>2026-04-17T14:05:59Z</time></trkpt><trkpt lat="43.50005462899911" lon="10.412555644458866"><ele>239.4</ele><time>2026-04-17T14:06:00Z</time></trkpt><trkpt lat="43.5000233384945" lon="10.412645474071782"><ele>241.60000000000002</ele><time>2026-04-17T14:06:01Z</time></trkpt><trkpt lat="43.49999773408109" lon="10.412755979902508"><ele>243.8</ele><time>2026-04-17T14:06:02Z</time></trkpt><trkpt lat="43.49998998832133" lon="10.412892671043029"><ele>246.0</ele><time>2026-04-17T14:06:03Z</time></trkpt><trkpt lat="43.49999872989874" lon="10.413063168675745"><ele>247.25</ele><time>2026-04-17T14:06:04Z</time></trkpt><trkpt lat="43.500014782865605" lon="10.413229630426022"><ele>248.5</ele><time>2026-04-17T14:06:05Z</time></trkpt><trkpt lat="43.50002102519019" lon="10.413355133866077"><ele>249.75</ele><time>2026-04-17T14:06:06Z</time></trkpt><trkpt lat="43.500030731093304" lon="10.41360307199067"><ele>251.0</ele><time>2026-04-17T14:06:08Z</time></trkpt><trkpt lat="43.50003592916625" lon="10.413747731348518"><ele>252.0</ele><time>2026-04-17T14:06:09Z</time></trkpt><trkpt lat="43.50003946618004" lon="10.413950020744325"><ele>253.0</ele><time>2026-04-17T14:06:10Z</time></trkpt><trkpt lat="43.500041441151986" lon="10.414110628821534"><ele>254.0</ele><time>2026-04-17T14:06:11Z</time></trkpt><trkpt lat="43.500049871823315" lon="10.414234317893053"><ele>255.0</ele><time>2026-04-17T14:06:12Z</time></trkpt><trkpt lat="43.50009456855456" lon="10.414364501034406"><ele>255.0</ele><time>2026-04-17T14:06:13Z</time></trkpt><trkpt lat="43.5001873563329" lon="10.414502459358074"><ele>255.0</ele><time>2026-04-17T14:06:14Z</time></trkpt><trkpt lat="43.50030782693002" lon="10.414649264208228"><ele>255.0</ele><time>2026-04-17T14:06:15Z</time></trkpt><trkpt lat="43.50041611760612" lon="10.414788039115734"><ele>255.0</ele><time>2026-04-17T14:06:16Z</time></trkpt><trkpt lat="43.50052430496276" lon="10.414927124116847"><ele>259.25</ele><time>2026-04-17T14:06:17Z</time></trkpt><trkpt lat="43.50062683976059" lon="10.415029030334019"><ele>263.5</ele><time>2026-04-17T14:06:18Z</time></trkpt><trkpt lat="43.500741850108106" lon="10.415102221749404"><ele>267.75</ele><time>2026-04-17T14:06:19Z</time></trkpt><trkpt lat="43.50086962880594" lon="10.415165239848555"><ele>272.0</ele><time>2026-04-17T14:06:20Z</time></trkpt><trkpt lat="43.500995672305685" lon="10.415240164977519"><ele>272.0</ele><time>2026-04-17T14:06:21Z</time></trkpt><trkpt lat="43.50113114606276" lon="10.415321605197603"><ele>272.0</ele><time>2026-04-17T14:06:22Z</time></trkpt><trkpt lat="43.50129128868073" lon="10.415416451558645"><ele>272.0</ele><time>2026-04-17T14:06:23Z</time></trkpt><trkpt lat="43.501444054544926" lon="10.41551978271503"><ele>276.33333333333337</ele><time>2026-04-17T14:06:24Z</time></trkpt><trkpt lat="43.50157085006592" lon="10.415636624340339"><ele>280.6666666666667</ele><time>2026-04-17T14:06:25Z</time></trkpt><trkpt lat="43.50168557815744" lon="10.415782875646755"><ele>285.0</ele><time>2026-04-17T14:06:26Z</time></trkpt><trkpt lat="43.5017949624166" lon="10.415964637407468"><ele>285.0</ele><time>2026-04-17T14:06:27Z</time></trkpt><trkpt lat="43.50199910420553" lon="10.416348810327573"><ele>285.0</ele><time>2026-04-17T14:06:29Z</time></trkpt><trkpt lat="43.502085578467415" lon="10.416520397340532"><ele>286.75</ele><time>2026-04-17T14:06:30Z</time></trkpt><trkpt lat="43.502158608198656" lon="10.41667647610238"><ele>288.5</ele><time>2026-04-17T14:06:31Z</time></trkpt><trkpt lat="43.50222508256269" lon="10.416850746948441"><ele>290.25</ele><time>2026-04-17T14:06:32Z</time></trkpt><trkpt lat="43.5022780912933" lon="10.417054849540643"><ele>292.0</ele><time>2026-04-17T14:06:33Z</time></trkpt><trkpt lat="43.50232479008127" lon="10.41729695377976"><ele>293.0</ele><time>2026-04-17T14:06:34Z</time></trkpt><trkpt lat="43.502366855918766" lon="10.417519646775288"><ele>294.0</ele><time>2026-04-17T14:06:35Z</time></trkpt><trkpt lat="43.50239990990098" lon="10.417707473559021"><ele>295.0</ele><time>2026-04-17T14:06:36.001Z</time></trkpt><trkpt lat="43.50240402877201" lon="10.417916928463148"><ele>297.0</ele><time>2026-04-17T14:06:37.001Z</time></trkpt><trkpt lat="43.50242757620382" lon="10.418143987285628"><ele>299.0</ele><time>2026-04-17T14:06:38.001Z</time></trkpt><trkpt lat="43.50243112623064" lon="10.418383734222592"><ele>301.0</ele><time>2026-04-17T14:06:39.001Z</time></trkpt><trkpt lat="43.502433354060585" lon="10.418630048116118"><ele>303.0</ele><time>2026-04-17T14:06:40.001Z</time></trkpt><trkpt lat="43.5024362311937" lon="10.418869595904244"><ele>305.0</ele><time>2026-04-17T14:06:41.001Z</time></trkpt><trkpt lat="43.50243993349521" lon="10.419091305679508"><ele>307.0</ele><time>2026-04-17T14:06:42.001Z</time></trkpt><trkpt lat="43.502441857590185" lon="10.419305883623712"><ele>307.0</ele><time>2026-04-17T14:06:43.001Z</time></trkpt><trkpt lat="43.50244482800533" lon="10.419517833370827"><ele>307.0</ele><time>2026-04-17T14:06:44.001Z</time></trkpt><trkpt lat="43.50244983652214" lon="10.419725590035318"><ele>307.0</ele><time>2026-04-17T14:06:45.001Z</time></trkpt><trkpt lat="43.50244885219557" lon="10.419935868578284"><ele>308.66666666666663</ele><time>2026-04-17T14:06:46.001Z</time></trkpt><trkpt lat="43.50245316498452" lon="10.420158802300623"><ele>310.3333333333333</ele><time>2026-04-17T14:06:47.001Z</time></trkpt><trkpt lat="43.502456935497214" lon="10.420386837162045"><ele>312.0</ele><time>2026-04-17T14:06:48.001Z</time></trkpt><trkpt lat="43.50240836665283" lon="10.420868768381863"><ele>313.0</ele><time>2026-04-17T14:06:50.001Z</time></trkpt><trkpt lat="43.50238993451552" lon="10.421106399728664"><ele>314.0</ele><time>2026-04-17T14:06:51.001Z</time></trkpt><trkpt lat="43.50235809942633" lon="10.421332662543783"><ele>315.0</ele><time>2026-04-17T14:06:52.001Z</time></trkpt><trkpt lat="43.50233274957279" lon="10.421535226273162"><ele>316.3333333333333</ele><time>2026-04-17T14:06:53.001Z</time></trkpt><trkpt lat="43.502309955864554" lon="10.421733312032154"><ele>317.66666666666663</ele><time>2026-04-17T14:06:54.001Z</time></trkpt><trkpt lat="43.50228397844535" lon="10.421939488109881"><ele>319.0</ele><time>2026-04-17T14:06:55.001Z</time></trkpt><trkpt lat="43.50221972714991" lon="10.422136232641034"><ele>319.75</ele><time>2026-04-17T14:06:56.001Z</time></trkpt><trkpt lat="43.502157370794784" lon="10.422333455043285"><ele>320.5</ele><time>2026-04-17T14:06:57.001Z</time></trkpt><trkpt lat="43.50210772646594" lon="10.42251157837206"><ele>321.25</ele><time>2026-04-17T14:06:58.001Z</time></trkpt><trkpt lat="43.502049732094214" lon="10.422674807224393"><ele>322.0</ele><time>2026-04-17T14:06:59.001Z</time></trkpt><trkpt lat="43.50196719687571" lon="10.42282089498244"><ele>322.0</ele><time>2026-04-17T14:07:00.001Z</time></trkpt><trkpt lat="43.50186887824146" lon="10.422942791031147"><ele>322.0</ele><time>2026-04-17T14:07:01.001Z</time></trkpt><trkpt lat="43.50175576649896" lon="10.423085580568069"><ele>322.0</ele><time>2026-04-17T14:07:02.001Z</time></trkpt><trkpt lat="43.50163490448506" lon="10.42318355450242"><ele>322.0</ele><time>2026-04-17T14:07:03.001Z</time></trkpt><trkpt lat="43.501540136870844" lon="10.423259550883573"><ele>323.40000000000003</ele><time>2026-04-17T14:07:04.001Z</time></trkpt><trkpt lat="43.501468662540226" lon="10.423327078733823"><ele>324.8</ele><time>2026-04-17T14:07:05.001Z</time></trkpt><trkpt lat="43.501411550414375" lon="10.423407862438305"><ele>326.2</ele><time>2026-04-17T14:07:06.001Z</time></trkpt><trkpt lat="43.50135808167885" lon="10.42352705550804"><ele>327.6</ele><time>2026-04-17T14:07:07.001Z</time></trkpt><trkpt lat="43.501313532441415" lon="10.423689487253618"><ele>329.0</ele><time>2026-04-17T14:07:08.001Z</time></trkpt><trkpt lat="43.50126296991045" lon="10.423850930696746"><ele>325.6666666666667</ele><time>2026-04-17T14:07:09.001Z</time></trkpt><trkpt lat="43.501202838744966" lon="10.424157792650925"><ele>322.3333333333333</ele><time>2026-04-17T14:07:11.001Z</time></trkpt><trkpt lat="43.50116186250833" lon="10.42430619058254"><ele>319.0</ele><time>2026-04-17T14:07:12.001Z</time></trkpt><trkpt lat="43.501126536612816" lon="10.424457331200284"><ele>319.0</ele><time>2026-04-17T14:07:13.001Z</time></trkpt><trkpt lat="43.501091836452524" lon="10.424592730032625"><ele>319.0</ele><time>2026-04-17T14:07:14.001Z</time></trkpt><trkpt lat="43.50105858973787" lon="10.424718410380482"><ele>319.0</ele><time>2026-04-17T14:07:15.001Z</time></trkpt><trkpt lat="43.5010091314325" lon="10.42484247296171"><ele>319.0</ele><time>2026-04-17T14:07:16.001Z</time></trkpt><trkpt lat="43.50093516706766" lon="10.424940240315252"><ele>319.0</ele><time>2026-04-17T14:07:17.001Z</time></trkpt><trkpt lat="43.500841340000136" lon="10.425003616383204"><ele>319.6</ele><time>2026-04-17T14:07:18.001Z</time></trkpt><trkpt lat="43.500728645478716" lon="10.42499824759394"><ele>320.2</ele><time>2026-04-17T14:07:19.001Z</time></trkpt><trkpt lat="43.5006299309097" lon="10.424995365612101"><ele>320.8</ele><time>2026-04-17T14:07:20.001Z</time></trkpt><trkpt lat="43.500530973094875" lon="10.425017812508855"><ele>321.40000000000003</ele><time>2026-04-17T14:07:21.001Z</time></trkpt><trkpt lat="43.500449088591985" lon="10.425024553048676"><ele>322.0</ele><time>2026-04-17T14:07:22.001Z</time></trkpt><trkpt lat="43.500384877159775" lon="10.425045185251808"><ele>320.8</ele><time>2026-04-17T14:07:23.001Z</time></trkpt><trkpt lat="43.50026585944372" lon="10.425137696066896"><ele>319.6</ele><time>2026-04-17T14:07:25.001Z</time></trkpt><trkpt lat="43.50019831399914" lon="10.425190237398452"><ele>318.40000000000003</ele><time>2026-04-17T14:07:26.001Z</time></trkpt><trkpt lat="43.50015031921828" lon="10.425295817062471"><ele>317.20000000000005</ele><time>2026-04-17T14:07:27.001Z</time></trkpt><trkpt lat="43.50009084135452" lon="10.42538570111357"><ele>316.0</ele><time>2026-04-17T14:07:28.001Z</time></trkpt><trkpt lat="43.50002546134106" lon="10.425451354629786"><ele>316.0</ele><time>2026-04-17T14:07:29.001Z</time></trkpt><trkpt lat="43.499972920679994" lon="10.4255293889507"><ele>321.0</ele><time>2026-04-17T14:07:30.001Z</time></trkpt></trkseg><trkseg><trkpt lat="43.47538212602565" lon="10.603642751188925"><ele>578.0</ele><time>2026-04-17T15:05:16Z</time></trkpt><trkpt lat="43.47532296265678" lon="10.603701278021147"><ele>578.0</ele><time>2026-04-17T15:06:49Z</time></trkpt><trkpt lat="43.47536189018059" lon="10.603794868571404"><ele>578.0</ele><time>2026-04-17T15:06:52Z</time></trkpt><trkpt lat="43.47544858946904" lon="10.60379092770687"><ele>578.0</ele><time>2026-04-17T15:06:58Z</time></trkpt><trkpt lat="43.47544586234383" lon="10.603668592414296"><ele>578.0</ele><time>2026-04-17T15:07:03Z</time></trkpt><trkpt lat="43.475397614577076" lon="10.603595950046271"><ele>578.0</ele><time>2026-04-17T15:07:05Z</time></trkpt><trkpt lat="43.47534667016419" lon="10.603533952531897"><ele>578.0</ele><time>2026-04-17T15:07:07Z</time></trkpt><trkpt lat="43.47533795277185" lon="10.603438159104133"><ele>578.0</ele><time>2026-04-17T15:07:10Z</time></trkpt><trkpt lat="43.475423601209826" lon="10.603370092716968"><ele>578.0</ele><time>2026-04-17T15:07:13Z</time></trkpt><trkpt lat="43.475501344913425" lon="10.603371606343222"><ele>578.0</ele><time>2026-04-17T15:07:15Z</time></trkpt><trkpt lat="43.47561227074327" lon="10.603359342090325"><ele>578.0</ele><time>2026-04-17T15:07:17Z</time></trkpt><trkpt lat="43.475677024880525" lon="10.603351257771788"><ele>578.0</ele><time>2026-04-17T15:07:18Z</time></trkpt><trkpt lat="43.47574079169226" lon="10.603357043047264"><ele>577.5714285714286</ele><time>2026-04-17T15:07:19Z</time></trkpt><trkpt lat="43.47581764693814" lon="10.603371483319934"><ele>577.1428571428571</ele><time>2026-04-17T15:07:20Z</time></trkpt><trkpt lat="43.4758899374577" lon="10.603388375611246"><ele>576.7142857142857</ele><time>2026-04-17T15:07:21Z</time></trkpt><trkpt lat="43.47595563706601" lon="10.603414900448442"><ele>576.2857142857142</ele><time>2026-04-17T15:07:22Z</time></trkpt><trkpt lat="43.47602432287733" lon="10.603446042558241"><ele>575.8571428571428</ele><time>2026-04-17T15:07:23Z</time></trkpt><trkpt lat="43.47608706589197" lon="10.603481547812935"><ele>575.4285714285714</ele><time>2026-04-17T15:07:24Z</time></trkpt><trkpt lat="43.47614696314553" lon="10.603545608487684"><ele>575.0</ele><time>2026-04-17T15:07:25Z</time></trkpt><trkpt lat="43.476200878405834" lon="10.603618155197204"><ele>574.0</ele><time>2026-04-17T15:07:26Z</time></trkpt><trkpt lat="43.476257939829736" lon="10.603689755930015"><ele>573.0</ele><time>2026-04-17T15:07:27Z</time></trkpt><trkpt lat="43.47631758325205" lon="10.603750446413562"><ele>572.0</ele><time>2026-04-17T15:07:28Z</time></trkpt><trkpt lat="43.476381148931104" lon="10.603800141856487"><ele>571.0</ele><time>2026-04-17T15:07:29Z</time></trkpt><trkpt lat="43.47644925522733" lon="10.603834961278842"><ele>570.0</ele><time>2026-04-17T15:07:30Z</time></trkpt><trkpt lat="43.47652262138888" lon="10.603854737602184"><ele>569.0</ele><time>2026-04-17T15:07:31Z</time></trkpt><trkpt lat="43.4765881741458" lon="10.603870410514423"><ele>568.0</ele><time>2026-04-17T15:07:32Z</time></trkpt><trkpt lat="43.476651884519455" lon="10.603870029587958"><ele>568.0</ele><time>2026-04-17T15:07:33Z</time></trkpt><trkpt lat="43.476724827507475" lon="10.603855407235544"><ele>568.0</ele><time>2026-04-17T15:07:34Z</time></trkpt><trkpt lat="43.47680336139367" lon="10.603828482602214"><ele>568.0</ele><time>2026-04-17T15:07:35Z</time></trkpt><trkpt lat="43.47688383679332" lon="10.60379317145172"><ele>568.0</ele><time>2026-04-17T15:07:36Z</time></trkpt><trkpt lat="43.476969605877564" lon="10.603747121020772"><ele>568.0</ele><time>2026-04-17T15:07:37Z</time></trkpt><trkpt lat="43.47705675015889" lon="10.603697777609947"><ele>568.0</ele><time>2026-04-17T15:07:38Z</time></trkpt><trkpt lat="43.47714223101402" lon="10.603665409396486"><ele>566.5</ele><time>2026-04-17T15:07:39Z</time></trkpt><trkpt lat="43.47723355100797" lon="10.603635008277747"><ele>565.0</ele><time>2026-04-17T15:07:40Z</time></trkpt><trkpt lat="43.47732812737856" lon="10.603614167141053"><ele>563.5</ele><time>2026-04-17T15:07:41Z</time></trkpt><trkpt lat="43.47741444552683" lon="10.603596693713918"><ele>562.0</ele><time>2026-04-17T15:07:42Z</time></trkpt><trkpt lat="43.47749068771821" lon="10.603563416900679"><ele>560.5</ele><time>2026-04-17T15:07:43Z</time></trkpt><trkpt lat="43.477547360202045" lon="10.60352004640329"><ele>559.0</ele><time>2026-04-17T15:07:44Z</time></trkpt><trkpt lat="43.47761242493893" lon="10.60345887372295"><ele>559.0</ele><time>2026-04-17T15:07:45Z</time></trkpt><trkpt lat="43.47768530051913" lon="10.603385731356129"><ele>559.0</ele><time>2026-04-17T15:07:46Z</time></trkpt><trkpt lat="43.47774988791122" lon="10.603303164331766"><ele>559.0</ele><time>2026-04-17T15:07:47Z</time></trkpt><trkpt lat="43.477810346415545" lon="10.60321656245154"><ele>559.0</ele><time>2026-04-17T15:07:48Z</time></trkpt><trkpt lat="43.47786918248094" lon="10.603129502607416"><ele>559.0</ele><time>2026-04-17T15:07:49Z</time></trkpt><trkpt lat="43.47793201585737" lon="10.603053998866425"><ele>559.0</ele><time>2026-04-17T15:07:50Z</time></trkpt><trkpt lat="43.47798915874808" lon="10.602977194132082"><ele>557.0</ele><time>2026-04-17T15:07:51Z</time></trkpt><trkpt lat="43.47805303128604" lon="10.602903286628399"><ele>555.0</ele><time>2026-04-17T15:07:52Z</time></trkpt><trkpt lat="43.478109770501085" lon="10.60282834389883"><ele>553.0</ele><time>2026-04-17T15:07:53Z</time></trkpt><trkpt lat="43.47814975751436" lon="10.602750486497593"><ele>551.0</ele><time>2026-04-17T15:07:54Z</time></trkpt><trkpt lat="43.47818585354888" lon="10.602657247603542"><ele>549.0</ele><time>2026-04-17T15:07:55Z</time></trkpt><trkpt lat="43.47821949195134" lon="10.602547582375518"><ele>547.0</ele><time>2026-04-17T15:07:56Z</time></trkpt><trkpt lat="43.478239809140725" lon="10.602440082061262"><ele>547.0</ele><time>2026-04-17T15:07:57Z</time></trkpt><trkpt lat="43.47826675220601" lon="10.602344585504758"><ele>547.0</ele><time>2026-04-17T15:07:58Z</time></trkpt><trkpt lat="43.47830055623805" lon="10.60225545053435"><ele>547.0</ele><time>2026-04-17T15:07:59Z</time></trkpt><trkpt lat="43.47834637086529" lon="10.602172301662666"><ele>547.0</ele><time>2026-04-17T15:08:00Z</time></trkpt><trkpt lat="43.47840633386657" lon="10.602098303568896"><ele>547.0</ele><time>2026-04-17T15:08:01Z</time></trkpt><trkpt lat="43.47846759133656" lon="10.602022334481688"><ele>547.0</ele><time>2026-04-17T15:08:02Z</time></trkpt><trkpt lat="43.478528704354844" lon="10.601955281129092"><ele>546.7142857142857</ele><time>2026-04-17T15:08:03Z</time></trkpt><trkpt lat="43.47858136722412" lon="10.60188501247465"><ele>546.4285714285713</ele><time>2026-04-17T15:08:04Z</time></trkpt><trkpt lat="43.47863113407682" lon="10.601821697578385"><ele>546.1428571428571</ele><time>2026-04-17T15:08:05Z</time></trkpt><trkpt lat="43.47868847335673" lon="10.601770601296042"><ele>545.8571428571429</ele><time>2026-04-17T15:08:06Z</time></trkpt><trkpt lat="43.478748182239165" lon="10.601735821783558"><ele>545.5714285714287</ele><time>2026-04-17T15:08:07Z</time></trkpt><trkpt lat="43.47881183927895" lon="10.601715877069786"><ele>545.2857142857143</ele><time>2026-04-17T15:08:08Z</time></trkpt><trkpt lat="43.47888063980769" lon="10.601706640451303"><ele>545.0</ele><time>2026-04-17T15:08:09Z</time></trkpt><trkpt lat="43.478960175899516" lon="10.601723892365978"><ele>544.6666666666666</ele><time>2026-04-17T15:08:10Z</time></trkpt><trkpt lat="43.47904808880896" lon="10.60175732932879"><ele>544.3333333333333</ele><time>2026-04-17T15:08:11Z</time></trkpt><trkpt lat="43.479129605340624" lon="10.60178268871748"><ele>544.0</ele><time>2026-04-17T15:08:12Z</time></trkpt><trkpt lat="43.47919459257185" lon="10.601779121642943"><ele>543.6666666666666</ele><time>2026-04-17T15:08:13Z</time></trkpt><trkpt lat="43.479317414477684" lon="10.601700595765996"><ele>543.3333333333334</ele><time>2026-04-17T15:08:15Z</time></trkpt><trkpt lat="43.479367953866735" lon="10.601637852575148"><ele>543.0</ele><time>2026-04-17T15:08:16Z</time></trkpt><trkpt lat="43.479417256163906" lon="10.601562526942606"><ele>543.0</ele><time>2026-04-17T15:08:17Z</time></trkpt><trkpt lat="43.47946531183623" lon="10.601469008770371"><ele>543.0</ele><time>2026-04-17T15:08:18Z</time></trkpt><trkpt lat="43.479516904645756" lon="10.601373596763645"><ele>543.0</ele><time>2026-04-17T15:08:19Z</time></trkpt><trkpt lat="43.47958162528106" lon="10.601287041561706"><ele>543.0</ele><time>2026-04-17T15:08:20Z</time></trkpt><trkpt lat="43.47965888206993" lon="10.601213311811916"><ele>543.0</ele><time>2026-04-17T15:08:21Z</time></trkpt><trkpt lat="43.47972675986043" lon="10.6011645908722"><ele>543.0</ele><time>2026-04-17T15:08:22Z</time></trkpt><trkpt lat="43.479801935772386" lon="10.601113252749874"><ele>541.1999999999999</ele><time>2026-04-17T15:08:23Z</time></trkpt><trkpt lat="43.479869925155946" lon="10.601036940324217"><ele>539.4</ele><time>2026-04-17T15:08:24Z</time></trkpt><trkpt lat="43.479946340943705" lon="10.600888327500055"><ele>537.5999999999999</ele><time>2026-04-17T15:08:26Z</time></trkpt><trkpt lat="43.47996966715295" lon="10.600791790124221"><ele>535.8</ele><time>2026-04-17T15:08:27Z</time></trkpt><trkpt lat="43.47997619398016" lon="10.600615504746857"><ele>534.0</ele><time>2026-04-17T15:08:29Z</time></trkpt><trkpt lat="43.47997565382162" lon="10.600520189959251"><ele>534.0</ele><time>2026-04-17T15:08:30Z</time></trkpt><trkpt lat="43.479979275224515" lon="10.60040694416959"><ele>534.0</ele><time>2026-04-17T15:08:31Z</time></trkpt><trkpt lat="43.47999390404671" lon="10.600301925158517"><ele>534.0</ele><time>2026-04-17T15:08:32Z</time></trkpt><trkpt lat="43.480020329073014" lon="10.600181736009414"><ele>534.0</ele><time>2026-04-17T15:08:33Z</time></trkpt><trkpt lat="43.48007082974884" lon="10.600066979109789"><ele>534.0</ele><time>2026-04-17T15:08:34Z</time></trkpt><trkpt lat="43.48013033989751" lon="10.599973109602116"><ele>534.0</ele><time>2026-04-17T15:08:35Z</time></trkpt><trkpt lat="43.48019849735372" lon="10.599888392293007"><ele>533.3333333333334</ele><time>2026-04-17T15:08:36Z</time></trkpt><trkpt lat="43.480269065416294" lon="10.599816574189088"><ele>532.6666666666666</ele><time>2026-04-17T15:08:37Z</time></trkpt><trkpt lat="43.480347594133384" lon="10.599753152301249"><ele>532.0</ele><time>2026-04-17T15:08:38Z</time></trkpt><trkpt lat="43.48042122086472" lon="10.599710894646977"><ele>531.3333333333333</ele><time>2026-04-17T15:08:39Z</time></trkpt><trkpt lat="43.4804923414096" lon="10.599672893786073"><ele>530.6666666666666</ele><time>2026-04-17T15:08:40Z</time></trkpt><trkpt lat="43.480560801201385" lon="10.59964386189935"><ele>530.0</ele><time>2026-04-17T15:08:41Z</time></trkpt><trkpt lat="43.48062934791927" lon="10.599620041706762"><ele>529.3333333333333</ele><time>2026-04-17T15:08:42Z</time></trkpt><trkpt lat="43.48071482682533" lon="10.599587235294239"><ele>528.6666666666666</ele><time>2026-04-17T15:08:43Z</time></trkpt><trkpt lat="43.48079361463076" lon="10.59955714370735"><ele>528.0</ele><time>2026-04-17T15:08:44Z</time></trkpt><trkpt lat="43.480862043756204" lon="10.599533669463503"><ele>527.3333333333334</ele><time>2026-04-17T15:08:45Z</time></trkpt><trkpt lat="43.480968395763014" lon="10.59949831371155"><ele>526.6666666666667</ele><time>2026-04-17T15:08:47Z</time></trkpt><trkpt lat="43.48103265296341" lon="10.599492111301709"><ele>526.0</ele><time>2026-04-17T15:09:18Z</time></trkpt><trkpt lat="43.48110018089569" lon="10.599455177661708"><ele>525.5</ele><time>2026-04-17T15:09:20Z</time></trkpt><trkpt lat="43.481182004607014" lon="10.599423326138792"><ele>525.0</ele><time>2026-04-17T15:09:22Z</time></trkpt><trkpt lat="43.48128654111049" lon="10.599387854892464"><ele>524.5</ele><time>2026-04-17T15:09:24Z</time></trkpt><trkpt lat="43.48134848926285" lon="10.599368177935517"><ele>524.0</ele><time>2026-04-17T15:09:25Z</time></trkpt><trkpt lat="43.481413426752816" lon="10.599354936982879"><ele>523.5</ele><time>2026-04-17T15:09:26Z</time></trkpt><trkpt lat="43.48147990836971" lon="10.599345981045031"><ele>523.0</ele><time>2026-04-17T15:09:27Z</time></trkpt><trkpt lat="43.48154557718674" lon="10.59934766404139"><ele>521.1666666666667</ele><time>2026-04-17T15:09:28Z</time></trkpt><trkpt lat="43.48161367452562" lon="10.599347989079485"><ele>519.3333333333334</ele><time>2026-04-17T15:09:29Z</time></trkpt><trkpt lat="43.481694573701326" lon="10.599350554642164"><ele>517.5</ele><time>2026-04-17T15:09:30Z</time></trkpt><trkpt lat="43.48177885551727" lon="10.599347645479511"><ele>515.6666666666666</ele><time>2026-04-17T15:09:31Z</time></trkpt><trkpt lat="43.48186314219632" lon="10.599341928258472"><ele>513.8333333333333</ele><time>2026-04-17T15:09:32Z</time></trkpt><trkpt lat="43.48195111562026" lon="10.599335521163757"><ele>512.0</ele><time>2026-04-17T15:09:33Z</time></trkpt><trkpt lat="43.48203307029515" lon="10.59932969183807"><ele>509.3333333333333</ele><time>2026-04-17T15:09:34Z</time></trkpt><trkpt lat="43.48212121862771" lon="10.599331608028555"><ele>506.66666666666663</ele><time>2026-04-17T15:09:35Z</time></trkpt><trkpt lat="43.48220644236697" lon="10.599340997608275"><ele>504.0</ele><time>2026-04-17T15:09:36Z</time></trkpt><trkpt lat="43.48228633193051" lon="10.599354684565292"><ele>501.33333333333337</ele><time>2026-04-17T15:09:37Z</time></trkpt><trkpt lat="43.48236805065499" lon="10.599382435276649"><ele>498.6666666666667</ele><time>2026-04-17T15:09:38Z</time></trkpt><trkpt lat="43.48245616099538" lon="10.59942559075309"><ele>496.0</ele><time>2026-04-17T15:09:39Z</time></trkpt><trkpt lat="43.482552631270224" lon="10.59948037246138"><ele>496.20000000000005</ele><time>2026-04-17T15:09:40Z</time></trkpt><trkpt lat="43.482647841759515" lon="10.59954232362122"><ele>496.40000000000003</ele><time>2026-04-17T15:09:41Z</time></trkpt><trkpt lat="43.48274400138586" lon="10.599609938064267"><ele>496.6</ele><time>2026-04-17T15:09:42Z</time></trkpt><trkpt lat="43.482844947584944" lon="10.599671704912023"><ele>496.8</ele><time>2026-04-17T15:09:43Z</time></trkpt><trkpt lat="43.48294779334" lon="10.599732189127407"><ele>497.0</ele><time>2026-04-17T15:09:44Z</time></trkpt><trkpt lat="43.48304626558397" lon="10.599789826637087"><ele>497.0</ele><time>2026-04-17T15:09:45Z</time></trkpt><trkpt lat="43.4831391893301" lon="10.599847453164008"><ele>497.00000000000006</ele><time>2026-04-17T15:09:46Z</time></trkpt><trkpt lat="43.48323403768522" lon="10.599905070769566"><ele>497.00000000000006</ele><time>2026-04-17T15:09:47Z</time></trkpt><trkpt lat="43.483321338547526" lon="10.599957375582623"><ele>497.0</ele><time>2026-04-17T15:09:48Z</time></trkpt><trkpt lat="43.48341075783872" lon="10.600005005680734"><ele>497.0</ele><time>2026-04-17T15:09:49Z</time></trkpt><trkpt lat="43.48349491000394" lon="10.600034440494047"><ele>497.0</ele><time>2026-04-17T15:09:50Z</time></trkpt><trkpt lat="43.483586231462034" lon="10.60006546218611"><ele>497.00000000000006</ele><time>2026-04-17T15:09:51Z</time></trkpt><trkpt lat="43.48368544386336" lon="10.600091425923825"><ele>497.00000000000006</ele><time>2026-04-17T15:09:52Z</time></trkpt><trkpt lat="43.483789991559014" lon="10.600106844289154"><ele>497.0</ele><time>2026-04-17T15:09:53Z</time></trkpt><trkpt lat="43.483892481881874" lon="10.600109068173388"><ele>497.0</ele><time>2026-04-17T15:09:54Z</time></trkpt><trkpt lat="43.48398993291013" lon="10.600100986437065"><ele>498.5</ele><time>2026-04-17T15:09:55Z</time></trkpt><trkpt lat="43.48409352747297" lon="10.600090808894539"><ele>500.0</ele><time>2026-04-17T15:09:56Z</time></trkpt><trkpt lat="43.48420364810282" lon="10.60008401109194"><ele>501.5</ele><time>2026-04-17T15:09:57Z</time></trkpt><trkpt lat="43.48432056419781" lon="10.600068222693245"><ele>503.0</ele><time>2026-04-17T15:09:58Z</time></trkpt><trkpt lat="43.484448171897455" lon="10.600050983483719"><ele>503.0</ele><time>2026-04-17T15:09:59Z</time></trkpt><trkpt lat="43.48458376816065" lon="10.600035591272068"><ele>503.0</ele><time>2026-04-17T15:10:00Z</time></trkpt><trkpt lat="43.48472180538011" lon="10.60002369038104"><ele>503.0</ele><time>2026-04-17T15:10:01Z</time></trkpt><trkpt lat="43.484869451527416" lon="10.600014233693496"><ele>503.0</ele><time>2026-04-17T15:10:02Z</time></trkpt><trkpt lat="43.484993473517676" lon="10.599993950019664"><ele>503.4</ele><time>2026-04-17T15:10:03Z</time></trkpt><trkpt lat="43.48509947964691" lon="10.599973555486931"><ele>503.79999999999995</ele><time>2026-04-17T15:10:04Z</time></trkpt><trkpt lat="43.48518251874957" lon="10.599949693126142"><ele>504.2</ele><time>2026-04-17T15:10:05Z</time></trkpt><trkpt lat="43.4852633381961" lon="10.599913919037942"><ele>504.6</ele><time>2026-04-17T15:10:06Z</time></trkpt><trkpt lat="43.48533550285101" lon="10.5998748480219"><ele>505.0</ele><time>2026-04-17T15:10:07Z</time></trkpt><trkpt lat="43.48543287914539" lon="10.599807606538773"><ele>505.33333333333337</ele><time>2026-04-17T15:10:09Z</time></trkpt><trkpt lat="43.48549409550933" lon="10.599779397740772"><ele>505.6666666666667</ele><time>2026-04-17T15:10:29Z</time></trkpt><trkpt lat="43.48557024566884" lon="10.599730306018252"><ele>506.0</ele><time>2026-04-17T15:10:31Z</time></trkpt><trkpt lat="43.4856747164364" lon="10.599680230802752"><ele>506.33333333333337</ele><time>2026-04-17T15:10:33Z</time></trkpt><trkpt lat="43.48574157953975" lon="10.5996638730572"><ele>506.6666666666667</ele><time>2026-04-17T15:10:34Z</time></trkpt><trkpt lat="43.48581343984179" lon="10.59964547485684"><ele>507.0</ele><time>2026-04-17T15:10:35Z</time></trkpt><trkpt lat="43.4858783119621" lon="10.599639289714958"><ele>507.0</ele><time>2026-04-17T15:10:36Z</time></trkpt><trkpt lat="43.48594380301604" lon="10.599639064620199"><ele>507.0</ele><time>2026-04-17T15:10:37Z</time></trkpt><trkpt lat="43.48602064073763" lon="10.599638363564738"><ele>507.0</ele><time>2026-04-17T15:10:38Z</time></trkpt><trkpt lat="43.48609334918448" lon="10.599646656452544"><ele>507.0</ele><time>2026-04-17T15:10:39Z</time></trkpt><trkpt lat="43.486171486623284" lon="10.599663000216259"><ele>507.0</ele><time>2026-04-17T15:10:40Z</time></trkpt><trkpt lat="43.48625502736252" lon="10.599679281477034"><ele>507.0</ele><time>2026-04-17T15:10:41Z</time></trkpt><trkpt lat="43.486338145311564" lon="10.599695047033547"><ele>506.1666666666667</ele><time>2026-04-17T15:10:42Z</time></trkpt><trkpt lat="43.48643291179002" lon="10.599716184407253"><ele>505.33333333333337</ele><time>2026-04-17T15:10:43Z</time></trkpt><trkpt lat="43.48651261472311" lon="10.599739665936946"><ele>504.5</ele><time>2026-04-17T15:10:44Z</time></trkpt><trkpt lat="43.48659510903923" lon="10.599765111563402"><ele>503.6666666666667</ele><time>2026-04-17T15:10:45Z</time></trkpt><trkpt lat="43.48668286319591" lon="10.599781065492774"><ele>502.83333333333337</ele><time>2026-04-17T15:10:46Z</time></trkpt><trkpt lat="43.486774886884255" lon="10.59977796926122"><ele>502.0</ele><time>2026-04-17T15:10:47Z</time></trkpt><trkpt lat="43.48686655323787" lon="10.599749434464753"><ele>502.0</ele><time>2026-04-17T15:10:48Z</time></trkpt><trkpt lat="43.486953277470256" lon="10.599702571168505"><ele>502.00000000000006</ele><time>2026-04-17T15:10:49Z</time></trkpt><trkpt lat="43.48704020490913" lon="10.59964151949164"><ele>502.00000000000006</ele><time>2026-04-17T15:10:50Z</time></trkpt><trkpt lat="43.48711110727383" lon="10.59957032070935"><ele>502.0</ele><time>2026-04-17T15:10:51Z</time></trkpt><trkpt lat="43.48717822528209" lon="10.5994910437507"><ele>502.0</ele><time>2026-04-17T15:10:52Z</time></trkpt><trkpt lat="43.487262362672276" lon="10.599374994390026"><ele>500.0</ele><time>2026-04-17T15:10:53Z</time></trkpt><trkpt lat="43.48735035548687" lon="10.599243560786316"><ele>498.0</ele><time>2026-04-17T15:10:54Z</time></trkpt><trkpt lat="43.4874463952718" lon="10.59910635466247"><ele>496.0</ele><time>2026-04-17T15:10:55Z</time></trkpt><trkpt lat="43.48754245011832" lon="10.598983926906545"><ele>494.0</ele><time>2026-04-17T15:10:56Z</time></trkpt><trkpt lat="43.487618252408524" lon="10.598863536279282"><ele>493.99999999999994</ele><time>2026-04-17T15:10:57Z</time></trkpt><trkpt lat="43.48767914039953" lon="10.598756712462626"><ele>494.0</ele><time>2026-04-17T15:10:58Z</time></trkpt><trkpt lat="43.48772803029432" lon="10.59865187570693"><ele>494.0</ele><time>2026-04-17T15:10:59Z</time></trkpt><trkpt lat="43.48776744532535" lon="10.598551716725353"><ele>494.0</ele><time>2026-04-17T15:11:00Z</time></trkpt><trkpt lat="43.487797406814224" lon="10.59844575911843"><ele>493.99999999999994</ele><time>2026-04-17T15:11:01Z</time></trkpt><trkpt lat="43.48782709263587" lon="10.59833863833653"><ele>494.0</ele><time>2026-04-17T15:11:02Z</time></trkpt><trkpt lat="43.487857328842054" lon="10.598236225685286"><ele>493.8333333333333</ele><time>2026-04-17T15:11:03Z</time></trkpt><trkpt lat="43.487897514735295" lon="10.598142549868587"><ele>493.66666666666663</ele><time>2026-04-17T15:11:04Z</time></trkpt><trkpt lat="43.48794573986329" lon="10.598049075078153"><ele>493.5</ele><time>2026-04-17T15:11:05Z</time></trkpt><trkpt lat="43.487996127903614" lon="10.597957948393283"><ele>493.33333333333337</ele><time>2026-04-17T15:11:06Z</time></trkpt><trkpt lat="43.488057324868194" lon="10.597871677322747"><ele>493.1666666666667</ele><time>2026-04-17T15:11:07Z</time></trkpt><trkpt lat="43.48812662158164" lon="10.597788760701224"><ele>493.0</ele><time>2026-04-17T15:11:08Z</time></trkpt><trkpt lat="43.4881957739082" lon="10.5977125564254"><ele>493.33333333333337</ele><time>2026-04-17T15:11:09Z</time></trkpt><trkpt lat="43.48826255791202" lon="10.597624529468959"><ele>493.6666666666667</ele><time>2026-04-17T15:11:10Z</time></trkpt><trkpt lat="43.48832186634822" lon="10.597537928593631"><ele>494.0</ele><time>2026-04-17T15:11:11Z</time></trkpt><trkpt lat="43.48837443126943" lon="10.597455104845302"><ele>494.33333333333337</ele><time>2026-04-17T15:11:12Z</time></trkpt><trkpt lat="43.488421761558456" lon="10.59737163242949"><ele>494.6666666666667</ele><time>2026-04-17T15:11:13Z</time></trkpt><trkpt lat="43.48846451807258" lon="10.597275470222884"><ele>495.0</ele><time>2026-04-17T15:11:14Z</time></trkpt><trkpt lat="43.48849176584869" lon="10.59717801557536"><ele>495.0</ele><time>2026-04-17T15:11:15Z</time></trkpt><trkpt lat="43.48853041440177" lon="10.597054473829148"><ele>495.0</ele><time>2026-04-17T15:11:16Z</time></trkpt><trkpt lat="43.488570466363356" lon="10.596944104817316"><ele>495.0</ele><time>2026-04-17T15:11:17Z</time></trkpt><trkpt lat="43.48861925165759" lon="10.596840303685681"><ele>495.0</ele><time>2026-04-17T15:11:18Z</time></trkpt><trkpt lat="43.48867020477488" lon="10.596733760061378"><ele>495.0</ele><time>2026-04-17T15:11:19Z</time></trkpt><trkpt lat="43.48872852788854" lon="10.596619888142484"><ele>494.5</ele><time>2026-04-17T15:11:20Z</time></trkpt><trkpt lat="43.4887854738931" lon="10.596530279245666"><ele>494.0</ele><time>2026-04-17T15:11:21Z</time></trkpt><trkpt lat="43.48884895363311" lon="10.596457885265545"><ele>493.5</ele><time>2026-04-17T15:11:22Z</time></trkpt><trkpt lat="43.48891971059741" lon="10.596404240087816"><ele>493.0</ele><time>2026-04-17T15:11:23Z</time></trkpt><trkpt lat="43.489003028022545" lon="10.596362814033743"><ele>492.5</ele><time>2026-04-17T15:11:24Z</time></trkpt><trkpt lat="43.48908463116507" lon="10.59635543721148"><ele>492.0</ele><time>2026-04-17T15:11:25Z</time></trkpt><trkpt lat="43.48916399447329" lon="10.596375985979702"><ele>492.0</ele><time>2026-04-17T15:11:26Z</time></trkpt><trkpt lat="43.48926096208048" lon="10.596424099628543"><ele>492.00000000000006</ele><time>2026-04-17T15:11:27Z</time></trkpt><trkpt lat="43.48937296649033" lon="10.596490393792655"><ele>492.00000000000006</ele><time>2026-04-17T15:11:28Z</time></trkpt><trkpt lat="43.48947717344588" lon="10.596530859005972"><ele>492.0</ele><time>2026-04-17T15:11:29Z</time></trkpt><trkpt lat="43.48959125464848" lon="10.596548070780385"><ele>492.0</ele><time>2026-04-17T15:11:30Z</time></trkpt><trkpt lat="43.48970912287705" lon="10.596562170861029"><ele>492.0</ele><time>2026-04-17T15:11:31Z</time></trkpt><trkpt lat="43.48980743168633" lon="10.596580004061227"><ele>492.00000000000006</ele><time>2026-04-17T15:11:32Z</time></trkpt><trkpt lat="43.48990256963402" lon="10.596579792827969"><ele>492.00000000000006</ele><time>2026-04-17T15:11:33Z</time></trkpt><trkpt lat="43.48998832468555" lon="10.596564758688851"><ele>492.0</ele><time>2026-04-17T15:11:34Z</time></trkpt><trkpt lat="43.49007230525366" lon="10.596525330382972"><ele>492.0</ele><time>2026-04-17T15:11:35Z</time></trkpt><trkpt lat="43.490155525947195" lon="10.59647134933004"><ele>492.0</ele><time>2026-04-17T15:11:36Z</time></trkpt><trkpt lat="43.490220758766725" lon="10.596425863648028"><ele>492.0</ele><time>2026-04-17T15:11:37Z</time></trkpt><trkpt lat="43.49033464490423" lon="10.596344651468"><ele>492.0</ele><time>2026-04-17T15:11:39Z</time></trkpt><trkpt lat="43.49040524020386" lon="10.5963205469188"><ele>492.0</ele><time>2026-04-17T15:11:40Z</time></trkpt><trkpt lat="43.49048104522415" lon="10.596309142199873"><ele>492.0</ele><time>2026-04-17T15:11:41Z</time></trkpt><trkpt lat="43.490548249688395" lon="10.596308961999439"><ele>492.0</ele><time>2026-04-17T15:11:42Z</time></trkpt><trkpt lat="43.490685156522375" lon="10.596335255447528"><ele>491.6666666666667</ele><time>2026-04-17T15:11:44Z</time></trkpt><trkpt lat="43.4907561291313" lon="10.5963500366676"><ele>491.33333333333337</ele><time>2026-04-17T15:11:45Z</time></trkpt><trkpt lat="43.49083746602561" lon="10.59635913655619"><ele>491.0</ele><time>2026-04-17T15:11:46Z</time></trkpt><trkpt lat="43.49091638717842" lon="10.596364578890865"><ele>490.6666666666667</ele><time>2026-04-17T15:11:47Z</time></trkpt><trkpt lat="43.49099753325376" lon="10.596365683027683"><ele>490.33333333333337</ele><time>2026-04-17T15:11:48Z</time></trkpt><trkpt lat="43.49107819822315" lon="10.59636242363375"><ele>490.0</ele><time>2026-04-17T15:11:49Z</time></trkpt><trkpt lat="43.49116140887391" lon="10.596358579009658"><ele>490.0</ele><time>2026-04-17T15:11:50Z</time></trkpt><trkpt lat="43.491234043313476" lon="10.59635993462885"><ele>490.0</ele><time>2026-04-17T15:11:51Z</time></trkpt><trkpt lat="43.49131419844391" lon="10.596380591276443"><ele>490.0</ele><time>2026-04-17T15:11:52Z</time></trkpt><trkpt lat="43.49139847928419" lon="10.596419801519009"><ele>490.0</ele><time>2026-04-17T15:11:53Z</time></trkpt><trkpt lat="43.491502130061235" lon="10.59649205165816"><ele>490.0</ele><time>2026-04-17T15:11:54Z</time></trkpt><trkpt lat="43.491606563301495" lon="10.596570593204458"><ele>489.33333333333337</ele><time>2026-04-17T15:11:55Z</time></trkpt><trkpt lat="43.49169272607269" lon="10.596641341625153"><ele>488.6666666666667</ele><time>2026-04-17T15:11:56Z</time></trkpt><trkpt lat="43.491762512442385" lon="10.596694718921364"><ele>488.0</ele><time>2026-04-17T15:11:57Z</time></trkpt><trkpt lat="43.49181976481483" lon="10.5967438260896"><ele>487.33333333333337</ele><time>2026-04-17T15:11:58Z</time></trkpt><trkpt lat="43.49187973635202" lon="10.596786406047226"><ele>486.6666666666667</ele><time>2026-04-17T15:11:59Z</time></trkpt><trkpt lat="43.49194902728337" lon="10.59682693418735"><ele>486.0</ele><time>2026-04-17T15:12:00Z</time></trkpt><trkpt lat="43.492015586944774" lon="10.596845486611215"><ele>486.0</ele><time>2026-04-17T15:12:01Z</time></trkpt><trkpt lat="43.492083906401426" lon="10.59684165049274"><ele>486.0</ele><time>2026-04-17T15:12:02Z</time></trkpt><trkpt lat="43.49215144855509" lon="10.59682959824086"><ele>486.0</ele><time>2026-04-17T15:12:03Z</time></trkpt><trkpt lat="43.4922123847452" lon="10.596804340792893"><ele>486.0</ele><time>2026-04-17T15:12:04Z</time></trkpt><trkpt lat="43.49227842787775" lon="10.596768186077556"><ele>486.0</ele><time>2026-04-17T15:12:05Z</time></trkpt><trkpt lat="43.49234388813873" lon="10.596711122092168"><ele>486.0</ele><time>2026-04-17T15:12:06Z</time></trkpt><trkpt lat="43.492410785436206" lon="10.596657452235624"><ele>486.0</ele><time>2026-04-17T15:12:07Z</time></trkpt><trkpt lat="43.49248827613356" lon="10.596589758691119"><ele>486.3333333333333</ele><time>2026-04-17T15:12:08Z</time></trkpt><trkpt lat="43.49257329212549" lon="10.596523195271441"><ele>486.66666666666663</ele><time>2026-04-17T15:12:09Z</time></trkpt><trkpt lat="43.49265284858506" lon="10.596460435828332"><ele>487.0</ele><time>2026-04-17T15:12:10Z</time></trkpt><trkpt lat="43.49271471703095" lon="10.596416596915128"><ele>487.3333333333333</ele><time>2026-04-17T15:12:11Z</time></trkpt><trkpt lat="43.49276264878842" lon="10.596343091923993"><ele>487.66666666666663</ele><time>2026-04-17T15:12:12Z</time></trkpt><trkpt lat="43.49281203796097" lon="10.596257408737502"><ele>488.0</ele><time>2026-04-17T15:12:13Z</time></trkpt><trkpt lat="43.49284309346671" lon="10.596164472866853"><ele>488.66666666666663</ele><time>2026-04-17T15:12:14Z</time></trkpt><trkpt lat="43.49286403458782" lon="10.59607302779475"><ele>489.3333333333333</ele><time>2026-04-17T15:12:15Z</time></trkpt><trkpt lat="43.492877734929515" lon="10.595971450241668"><ele>490.0</ele><time>2026-04-17T15:12:16Z</time></trkpt><trkpt lat="43.49288847890067" lon="10.595864961928676"><ele>490.66666666666663</ele><time>2026-04-17T15:12:17Z</time></trkpt><trkpt lat="43.49290108663756" lon="10.59576648788019"><ele>491.3333333333333</ele><time>2026-04-17T15:12:18Z</time></trkpt><trkpt lat="43.4929221717781" lon="10.595661953574107"><ele>492.0</ele><time>2026-04-17T15:12:19Z</time></trkpt><trkpt lat="43.492955982583226" lon="10.595564375561343"><ele>491.00000000000006</ele><time>2026-04-17T15:12:20Z</time></trkpt><trkpt lat="43.49299910170159" lon="10.595483068101393"><ele>490.0</ele><time>2026-04-17T15:12:21Z</time></trkpt><trkpt lat="43.49305151297323" lon="10.595421797132268"><ele>489.00000000000006</ele><time>2026-04-17T15:12:22Z</time></trkpt><trkpt lat="43.493110342031756" lon="10.595367909655176"><ele>488.00000000000006</ele><time>2026-04-17T15:12:23Z</time></trkpt><trkpt lat="43.4931710058077" lon="10.595337201747187"><ele>487.0</ele><time>2026-04-17T15:12:24Z</time></trkpt><trkpt lat="43.493237163724004" lon="10.595314765172105"><ele>486.00000000000006</ele><time>2026-04-17T15:12:25Z</time></trkpt><trkpt lat="43.49330704030799" lon="10.595310286359954"><ele>485.00000000000006</ele><time>2026-04-17T15:12:26Z</time></trkpt><trkpt lat="43.493386143335385" lon="10.595312291725682"><ele>485.0</ele><time>2026-04-17T15:12:27Z</time></trkpt><trkpt lat="43.493471536899555" lon="10.595320294924155"><ele>485.0</ele><time>2026-04-17T15:12:28Z</time></trkpt><trkpt lat="43.493562155363165" lon="10.595334784033833"><ele>485.0</ele><time>2026-04-17T15:12:29Z</time></trkpt><trkpt lat="43.493660047113984" lon="10.595364282410454"><ele>485.0</ele><time>2026-04-17T15:12:30Z</time></trkpt><trkpt lat="43.49376054571829" lon="10.59538879168406"><ele>485.0</ele><time>2026-04-17T15:12:31Z</time></trkpt><trkpt lat="43.49385669859101" lon="10.59541612312168"><ele>484.49999999999994</ele><time>2026-04-17T15:12:32Z</time></trkpt><trkpt lat="43.49393160860992" lon="10.595436424806955"><ele>484.0</ele><time>2026-04-17T15:12:33Z</time></trkpt><trkpt lat="43.49400038039772" lon="10.595448479775149"><ele>483.5</ele><time>2026-04-17T15:12:34Z</time></trkpt><trkpt lat="43.49406817418863" lon="10.595444955959694"><ele>483.0</ele><time>2026-04-17T15:12:35Z</time></trkpt><trkpt lat="43.49418403516147" lon="10.595406563986675"><ele>482.49999999999994</ele><time>2026-04-17T15:12:37Z</time></trkpt><trkpt lat="43.49426968873434" lon="10.595349782572525"><ele>482.0</ele><time>2026-04-17T15:12:39Z</time></trkpt><trkpt lat="43.49433048799809" lon="10.595285403629347"><ele>482.0</ele><time>2026-04-17T15:12:51Z</time></trkpt><trkpt lat="43.49438293161996" lon="10.59519754966441"><ele>482.00000000000006</ele><time>2026-04-17T15:12:53Z</time></trkpt><trkpt lat="43.49445107886655" lon="10.595116406899269"><ele>482.00000000000006</ele><time>2026-04-17T15:12:55Z</time></trkpt><trkpt lat="43.49450360649828" lon="10.594984518526404"><ele>482.0</ele><time>2026-04-17T15:12:57Z</time></trkpt><trkpt lat="43.49457200520889" lon="10.59484876089561"><ele>482.0</ele><time>2026-04-17T15:12:59Z</time></trkpt><trkpt lat="43.49463921968644" lon="10.594722557657239"><ele>480.0</ele><time>2026-04-17T15:13:01Z</time></trkpt><trkpt lat="43.494703212799635" lon="10.594587685896913"><ele>478.00000000000006</ele><time>2026-04-17T15:13:03Z</time></trkpt><trkpt lat="43.49476072988499" lon="10.594455355285666"><ele>476.00000000000006</ele><time>2026-04-17T15:13:05Z</time></trkpt><trkpt lat="43.494796180089416" lon="10.59434802462734"><ele>474.0</ele><time>2026-04-17T15:13:07Z</time></trkpt><trkpt lat="43.49481060241871" lon="10.594236279344265"><ele>472.0</ele><time>2026-04-17T15:13:09Z</time></trkpt><trkpt lat="43.494816400108576" lon="10.594124783033681"><ele>472.00000000000006</ele><time>2026-04-17T15:13:12Z</time></trkpt><trkpt lat="43.49488474311205" lon="10.594070541322557"><ele>472.0</ele><time>2026-04-17T15:13:15Z</time></trkpt><trkpt lat="43.494973300477795" lon="10.594101375135493"><ele>472.0</ele><time>2026-04-17T15:13:18Z</time></trkpt><trkpt lat="43.494999224562164" lon="10.594199894427724"><ele>472.0</ele><time>2026-04-17T15:13:21Z</time></trkpt><trkpt lat="43.494922456203305" lon="10.594193867719865"><ele>472.00000000000006</ele><time>2026-04-17T15:13:26Z</time></trkpt><trkpt lat="43.49486686215563" lon="10.594116804368213"><ele>472.0</ele><time>2026-04-17T15:13:29Z</time></trkpt><trkpt lat="43.494797268772736" lon="10.594126391072896"><ele>472.00000000000006</ele><time>2026-04-17T15:13:33Z</time></trkpt><trkpt lat="43.49475832384533" lon="10.59419900448576"><ele>472.0</ele><time>2026-04-17T15:13:36Z</time></trkpt><trkpt lat="43.49481233608551" lon="10.59414559922573"><ele>472.0</ele><time>2026-04-17T15:18:11Z</time></trkpt><trkpt lat="43.49476950015244" lon="10.59421030713833"><ele>472.0</ele><time>2026-04-17T15:18:38Z</time></trkpt><trkpt lat="43.49474407162266" lon="10.594372765398738"><ele>472.00000000000006</ele><time>2026-04-17T15:22:04.999Z</time></trkpt><trkpt lat="43.494708201726446" lon="10.594450182595876"><ele>472.0</ele><time>2026-04-17T15:22:05.999Z</time></trkpt><trkpt lat="43.4946459582463" lon="10.59459810182397"><ele>471.0</ele><time>2026-04-17T15:22:07.999Z</time></trkpt><trkpt lat="43.49468043282375" lon="10.594678707058188"><ele>471.0</ele><time>2026-04-17T15:22:12.999Z</time></trkpt><trkpt lat="43.494611766813335" lon="10.594704615116918"><ele>471.0</ele><time>2026-04-17T15:22:21.999Z</time></trkpt></trkseg></trk></gpx>